createdAt,value
2018-06-01T00:00:09.830Z,56.00
2018-06-01T00:02:38.924Z,56.40
2018-06-01T00:05:08.343Z,55.90
2018-06-01T00:07:38.016Z,56.40
2018-06-01T00:10:06.929Z,55.90
2018-06-01T00:12:36.590Z,56.50
2018-06-01T00:15:05.935Z,55.90
2018-06-01T00:17:35.594Z,56.40
2018-06-01T00:20:04.503Z,55.90
2018-06-01T00:22:33.389Z,55.90
2018-06-01T00:25:02.277Z,55.90
2018-06-01T00:27:31.942Z,56.40
2018-06-01T00:30:00.842Z,55.90
2018-06-01T00:32:29.733Z,55.90
2018-06-01T00:34:59.449Z,55.90
2018-06-01T00:37:28.349Z,56.40
2018-06-01T00:39:57.364Z,56.40
2018-06-01T00:42:28.385Z,55.90
2018-06-01T00:44:57.285Z,55.90
2018-06-01T00:47:26.582Z,55.90
2018-06-01T00:49:55.482Z,55.90
2018-06-01T00:52:24.375Z,55.90
2018-06-01T00:55:05.196Z,55.80
2018-06-01T00:57:34.137Z,55.90
2018-06-01T01:00:03.172Z,55.80
2018-06-01T01:02:32.337Z,55.90
2018-06-01T01:05:01.460Z,55.80
2018-06-01T01:07:30.339Z,56.40
2018-06-01T01:09:59.246Z,55.80
2018-06-01T01:12:28.132Z,55.90
2018-06-01T01:14:57.025Z,55.90
2018-06-01T01:17:25.922Z,55.90
2018-06-01T01:19:55.099Z,55.80
2018-06-01T01:22:24.196Z,55.90
2018-06-01T01:24:53.093Z,55.90
2018-06-01T01:27:22.038Z,55.90
2018-06-01T01:29:51.461Z,55.90
2018-06-01T01:32:21.377Z,56.40
2018-06-01T01:34:51.041Z,56.40
2018-06-01T01:37:31.752Z,55.90
2018-06-01T01:40:01.414Z,56.40
2018-06-01T01:42:30.448Z,56.40
2018-06-01T01:45:00.116Z,56.50
2018-06-01T01:47:29.282Z,55.80
2018-06-01T01:49:58.273Z,55.90
2018-06-01T01:52:27.190Z,55.90
2018-06-01T01:54:56.839Z,55.80
2018-06-01T01:57:25.737Z,55.90
2018-06-01T01:59:55.401Z,56.40
2018-06-01T02:02:24.512Z,55.80
2018-06-01T02:04:53.612Z,55.80
2018-06-01T02:07:23.273Z,55.80
2018-06-01T02:09:52.166Z,56.40
2018-06-01T02:12:21.067Z,55.90
2018-06-01T02:14:50.724Z,55.80
2018-06-01T02:17:20.388Z,56.40
2018-06-01T02:19:49.290Z,55.80
2018-06-01T02:22:18.185Z,55.80
2018-06-01T02:24:47.476Z,55.80
2018-06-01T02:27:16.403Z,55.80
2018-06-01T02:29:45.297Z,55.80
2018-06-01T02:32:14.618Z,55.80
2018-06-01T02:34:44.793Z,55.80
2018-06-01T02:37:13.682Z,55.80
2018-06-01T02:39:42.579Z,55.90
2018-06-01T02:42:12.392Z,56.40
2018-06-01T02:44:42.058Z,56.40
2018-06-01T02:47:10.992Z,56.40
2018-06-01T02:49:40.778Z,56.40
2018-06-01T02:52:10.796Z,55.80
2018-06-01T02:54:39.696Z,55.80
2018-06-01T02:57:08.606Z,55.80
2018-06-01T02:59:38.275Z,56.40
2018-06-01T03:02:07.308Z,55.80
2018-06-01T03:04:37.517Z,56.40
2018-06-01T03:07:14.014Z,56.40
2018-06-01T03:09:43.082Z,56.30
2018-06-01T03:12:12.997Z,56.40
2018-06-01T03:14:42.918Z,56.40
2018-06-01T03:17:12.618Z,56.40
2018-06-01T03:19:41.527Z,55.80
2018-06-01T03:22:10.430Z,55.80
2018-06-01T03:24:39.314Z,56.30
2018-06-01T03:27:08.200Z,56.40
2018-06-01T03:29:37.467Z,55.80
2018-06-01T03:32:07.504Z,55.80
2018-06-01T03:34:36.565Z,56.30
2018-06-01T03:37:05.459Z,55.80
2018-06-01T03:39:34.352Z,55.80
2018-06-01T03:42:03.358Z,55.80
2018-06-01T03:47:02.487Z,55.80
2018-06-01T03:49:31.378Z,55.80
2018-06-01T03:52:00.279Z,55.80
2018-06-01T03:54:29.160Z,55.80
2018-06-01T03:56:58.058Z,55.80
2018-06-01T03:59:26.951Z,55.80
2018-06-01T04:01:55.870Z,56.30
2018-06-01T04:04:24.873Z,55.80
2018-06-01T04:06:53.755Z,55.80
2018-06-01T04:09:22.653Z,55.80
2018-06-01T04:11:51.741Z,55.70
2018-06-01T04:14:20.640Z,55.80
2018-06-01T04:16:51.041Z,55.80
2018-06-01T04:19:19.934Z,55.80
2018-06-01T04:21:48.834Z,55.80
2018-06-01T04:24:17.725Z,55.80
2018-06-01T04:26:46.638Z,55.80
2018-06-01T04:29:16.311Z,56.30
2018-06-01T04:31:45.317Z,55.80
2018-06-01T04:34:14.231Z,55.80
2018-06-01T04:36:43.885Z,56.30
2018-06-01T04:39:12.781Z,55.70
2018-06-01T04:41:41.668Z,56.30
2018-06-01T04:44:10.562Z,55.70
2018-06-01T04:46:40.210Z,55.80
2018-06-01T04:49:09.918Z,56.30
2018-06-01T04:51:38.832Z,55.70
2018-06-01T04:54:07.728Z,55.70
2018-06-01T04:56:36.620Z,55.70
2018-06-01T04:59:05.505Z,55.70
2018-06-01T05:01:34.693Z,55.80
2018-06-01T05:04:03.578Z,55.70
2018-06-01T05:06:32.554Z,55.70
2018-06-01T05:09:02.954Z,55.70
2018-06-01T05:11:32.228Z,55.70
2018-06-01T05:14:01.275Z,55.70
2018-06-01T05:16:30.940Z,55.70
2018-06-01T05:18:59.847Z,55.70
2018-06-01T05:21:29.057Z,55.70
2018-06-01T05:23:58.711Z,55.60
2018-06-01T05:26:28.166Z,55.60
2018-06-01T05:28:57.049Z,55.70
2018-06-01T05:31:25.947Z,55.70
2018-06-01T05:33:54.849Z,55.60
2018-06-01T05:36:24.150Z,55.70
2018-06-01T05:38:53.805Z,56.20
2018-06-01T05:41:22.700Z,55.60
2018-06-01T05:43:51.981Z,55.60
2018-06-01T05:46:20.878Z,55.60
2018-06-01T05:48:50.037Z,56.20
2018-06-01T05:51:19.690Z,56.20
2018-06-01T05:53:48.705Z,55.60
2018-06-01T05:56:17.719Z,55.60
2018-06-01T05:58:47.373Z,56.20
2018-06-01T06:01:16.271Z,56.10
2018-06-01T06:03:45.182Z,55.60
2018-06-01T06:06:14.077Z,55.60
2018-06-01T06:08:42.952Z,55.60
2018-06-01T06:11:11.846Z,55.50
2018-06-01T06:13:40.757Z,55.50
2018-06-01T06:16:09.641Z,56.10
2018-06-01T06:18:38.530Z,55.60
2018-06-01T06:21:07.885Z,55.60
2018-06-01T06:23:37.729Z,55.50
2018-06-01T06:26:06.855Z,55.60
2018-06-01T06:28:36.507Z,56.10
2018-06-01T06:31:05.790Z,55.50
2018-06-01T06:33:34.681Z,55.50
2018-06-01T06:36:03.582Z,55.50
2018-06-01T06:38:32.477Z,55.50
2018-06-01T06:41:01.365Z,55.60
2018-06-01T06:43:30.260Z,55.60
2018-06-01T06:45:59.154Z,56.00
2018-06-01T06:48:28.280Z,55.50
2018-06-01T06:50:57.945Z,55.50
2018-06-01T06:53:26.851Z,55.60
2018-06-01T06:55:56.373Z,55.50
2018-06-01T06:58:25.265Z,56.00
2018-06-01T07:00:54.921Z,55.50
2018-06-01T07:03:24.075Z,55.50
2018-06-01T07:05:53.757Z,55.50
2018-06-01T07:08:23.077Z,55.50
2018-06-01T07:10:51.965Z,55.50
2018-06-01T07:13:20.857Z,56.10
2018-06-01T07:15:49.766Z,55.50
2018-06-01T07:18:18.740Z,55.50
2018-06-01T07:20:47.736Z,55.50
2018-06-01T07:23:17.389Z,56.00
2018-06-01T07:25:46.339Z,55.50
2018-06-01T07:28:16.002Z,55.50
2018-06-01T07:30:44.905Z,55.50
2018-06-01T07:33:13.828Z,55.50
2018-06-01T07:35:42.698Z,56.00
2018-06-01T07:38:11.591Z,55.50
2018-06-01T07:40:40.503Z,55.50
2018-06-01T07:43:10.403Z,55.50
2018-06-01T07:45:40.084Z,56.00
2018-06-01T07:48:08.952Z,55.50
2018-06-01T07:50:37.856Z,55.50
2018-06-01T07:53:06.864Z,55.50
2018-06-01T07:55:37.270Z,56.00
2018-06-01T07:58:06.306Z,55.50
2018-06-01T08:00:35.377Z,55.50
2018-06-01T08:03:04.267Z,55.50
2018-06-01T08:05:33.580Z,55.60
2018-06-01T08:08:02.458Z,55.50
2018-06-01T08:10:31.366Z,55.50
2018-06-01T08:13:01.019Z,56.10
2018-06-01T08:15:29.921Z,56.10
2018-06-01T08:17:58.959Z,55.50
2018-06-01T08:20:28.620Z,56.10
2018-06-01T08:22:57.938Z,55.50
2018-06-01T08:25:27.137Z,55.50
2018-06-01T08:27:56.031Z,55.60
2018-06-01T08:30:24.925Z,56.20
2018-06-01T08:32:53.810Z,55.60
2018-06-01T08:35:23.031Z,55.60
2018-06-01T08:37:52.704Z,56.20
2018-06-01T08:40:21.601Z,55.60
2018-06-01T08:42:50.505Z,55.70
2018-06-01T08:45:19.403Z,55.60
2018-06-01T08:47:49.725Z,55.70
2018-06-01T08:50:19.381Z,56.20
2018-06-01T08:52:48.277Z,56.20
2018-06-01T08:55:17.168Z,55.60
2018-06-01T08:57:46.071Z,55.70
2018-06-01T09:00:15.358Z,55.60
2018-06-01T09:02:44.677Z,55.70
2018-06-01T09:05:13.630Z,55.60
2018-06-01T09:07:42.508Z,56.10
2018-06-01T09:10:11.439Z,56.10
2018-06-01T09:12:40.339Z,56.20
2018-06-01T09:15:09.234Z,55.50
2018-06-01T09:17:38.120Z,55.60
2018-06-01T09:20:07.024Z,56.10
2018-06-01T09:22:36.225Z,55.60
2018-06-01T09:25:05.890Z,56.20
2018-06-01T09:27:34.789Z,55.60
2018-06-01T09:30:03.708Z,55.70
2018-06-01T09:32:32.607Z,55.60
2018-06-01T09:35:02.285Z,56.30
2018-06-01T09:37:31.176Z,55.70
2018-06-01T09:40:00.072Z,55.70
2018-06-01T09:42:29.724Z,55.60
2018-06-01T09:44:58.622Z,55.60
2018-06-01T09:47:27.573Z,55.70
2018-06-01T09:49:57.221Z,56.30
2018-06-01T09:52:26.506Z,55.70
2018-06-01T09:57:26.008Z,55.70
2018-06-01T09:59:55.663Z,56.30
2018-06-01T10:02:24.908Z,55.70
2018-06-01T10:04:53.802Z,55.70
2018-06-01T10:07:23.456Z,56.20
2018-06-01T10:09:58.430Z,55.60
2018-06-01T10:12:28.093Z,56.30
2018-06-01T10:14:57.125Z,55.60
2018-06-01T10:17:26.017Z,56.20
2018-06-01T10:19:55.306Z,55.70
2018-06-01T10:22:24.199Z,55.70
2018-06-01T10:24:53.093Z,55.70
2018-06-01T10:27:22.925Z,56.20
2018-06-01T10:29:52.785Z,55.60
2018-06-01T10:32:21.932Z,55.60
2018-06-01T10:34:51.837Z,56.10
2018-06-01T10:37:21.747Z,56.20
2018-06-01T10:39:51.670Z,56.10
2018-06-01T10:42:21.330Z,56.20
2018-06-01T10:44:50.220Z,55.70
2018-06-01T10:47:19.119Z,55.70
2018-06-01T10:49:48.027Z,55.60
2018-06-01T10:52:16.905Z,56.20
2018-06-01T10:54:45.802Z,55.60
2018-06-01T10:57:14.808Z,55.60
2018-06-01T10:59:43.709Z,55.60
2018-06-01T11:02:12.600Z,55.80
2018-06-01T11:04:41.495Z,55.50
2018-06-01T11:07:11.148Z,55.50
2018-06-01T11:09:40.043Z,55.40
2018-06-01T11:12:09.350Z,55.50
2018-06-01T11:14:38.570Z,55.50
2018-06-01T11:17:08.520Z,56.10
2018-06-01T11:19:37.405Z,55.70
2018-06-01T11:22:06.326Z,56.20
2018-06-01T11:24:35.460Z,55.60
2018-06-01T11:27:05.145Z,55.60
2018-06-01T11:29:34.025Z,55.70
2018-06-01T11:32:02.923Z,55.60
2018-06-01T11:34:31.813Z,55.70
2018-06-01T11:37:00.712Z,55.70
2018-06-01T11:39:29.913Z,55.70
2018-06-01T11:41:59.579Z,56.40
2018-06-01T11:44:28.473Z,55.90
2018-06-01T11:46:57.368Z,55.80
2018-06-01T11:49:26.331Z,55.90
2018-06-01T11:51:55.397Z,55.80
2018-06-01T11:56:55.073Z,56.40
2018-06-01T11:59:23.985Z,55.70
2018-06-01T12:01:53.284Z,55.90
2018-06-01T12:04:23.685Z,55.70
2018-06-01T12:06:52.823Z,55.80
2018-06-01T12:09:22.496Z,56.20
2018-06-01T12:11:51.423Z,55.60
2018-06-01T12:14:21.081Z,55.60
2018-06-01T12:16:50.105Z,55.80
2018-06-01T12:19:19.221Z,55.60
2018-06-01T12:21:48.307Z,56.10
2018-06-01T12:24:18.095Z,55.60
2018-06-01T12:26:46.985Z,55.60
2018-06-01T12:29:15.954Z,55.50
2018-06-01T12:31:44.765Z,55.60
2018-06-01T12:34:13.652Z,55.60
2018-06-01T12:36:42.776Z,56.00
2018-06-01T12:39:12.438Z,56.10
2018-06-01T12:41:41.333Z,55.60
2018-06-01T12:44:10.239Z,55.90
2018-06-01T12:46:39.148Z,55.70
2018-06-01T12:49:08.816Z,56.40
2018-06-01T12:51:37.997Z,56.10
2018-06-01T12:54:07.241Z,55.70
2018-06-01T12:56:36.529Z,55.90
2018-06-01T12:59:05.422Z,55.80
2018-06-01T13:01:34.944Z,55.70
2018-06-01T13:04:05.337Z,55.70
2018-06-01T13:06:34.453Z,55.60
2018-06-01T13:09:03.736Z,55.60
2018-06-01T13:11:33.785Z,55.60
2018-06-01T13:14:03.443Z,56.40
2018-06-01T13:16:32.378Z,55.80
2018-06-01T13:19:02.033Z,56.40
2018-06-01T13:21:30.935Z,55.50
2018-06-01T13:23:59.830Z,55.60
2018-06-01T13:26:28.809Z,55.60
2018-06-01T13:28:57.948Z,55.60
2018-06-01T13:31:26.836Z,55.70
2018-06-01T13:33:56.499Z,56.20
2018-06-01T13:36:25.392Z,56.00
2018-06-01T13:38:54.310Z,56.10
2018-06-01T13:41:23.205Z,55.80
2018-06-01T13:43:52.101Z,56.10
2018-06-01T13:46:20.993Z,56.10
2018-06-01T13:51:20.017Z,56.00
2018-06-01T13:53:49.215Z,56.00
2018-06-01T13:56:19.118Z,56.60
2018-06-01T13:58:49.028Z,56.50
2018-06-01T14:01:19.061Z,56.00
2018-06-01T14:03:47.968Z,56.20
2018-06-01T14:06:16.854Z,56.30
2018-06-01T14:08:45.740Z,56.10
2018-06-01T14:11:14.644Z,56.00
2018-06-01T14:13:43.532Z,56.00
2018-06-01T14:16:12.691Z,55.90
2018-06-01T14:18:42.344Z,56.40
2018-06-01T14:21:11.377Z,56.00
2018-06-01T14:23:40.469Z,56.50
2018-06-01T14:26:09.495Z,56.00
2018-06-01T14:28:39.124Z,56.60
2018-06-01T14:31:08.025Z,55.90
2018-06-01T14:33:37.033Z,55.70
2018-06-01T14:36:05.925Z,55.80
2018-06-01T14:38:35.048Z,55.80
2018-06-01T14:41:04.044Z,55.80
2018-06-01T14:43:33.706Z,56.40
2018-06-01T14:46:02.611Z,55.80
2018-06-01T14:48:31.823Z,55.50
2018-06-01T14:51:00.717Z,55.60
2018-06-01T14:53:29.929Z,55.70
2018-06-01T14:58:29.599Z,56.10
2018-06-01T15:00:58.494Z,55.60
2018-06-01T15:03:28.337Z,55.50
2018-06-01T15:05:58.004Z,56.10
2018-06-01T15:08:27.789Z,55.30
2018-06-01T15:10:56.951Z,55.40
2018-06-01T15:13:25.853Z,56.00
2018-06-01T15:15:55.507Z,55.90
2018-06-01T15:18:24.399Z,55.40
2018-06-01T15:20:53.737Z,55.40
2018-06-01T15:23:22.621Z,55.50
2018-06-01T15:25:51.520Z,55.30
2018-06-01T15:28:20.410Z,55.30
2018-06-01T15:30:49.615Z,55.40
2018-06-01T15:33:19.268Z,55.90
2018-06-01T15:35:48.554Z,55.20
2018-06-01T15:38:17.441Z,55.20
2018-06-01T15:40:46.368Z,55.30
2018-06-01T15:43:15.235Z,55.80
2018-06-01T15:45:44.127Z,54.90
2018-06-01T15:48:13.273Z,54.80
2018-06-01T15:50:42.930Z,55.30
2018-06-01T15:53:12.590Z,54.60
2018-06-01T15:55:42.250Z,54.60
2018-06-01T15:58:11.500Z,54.50
2018-06-01T16:00:41.155Z,54.70
2018-06-01T16:03:10.053Z,54.60
2018-06-01T16:05:38.954Z,54.70
2018-06-01T16:08:07.842Z,54.70
2018-06-01T16:10:36.789Z,54.60
2018-06-01T16:13:06.073Z,54.60
2018-06-01T16:15:35.053Z,54.60
2018-06-01T16:18:04.712Z,55.10
2018-06-01T16:20:33.835Z,55.10
2018-06-01T16:23:03.057Z,54.60
2018-06-01T16:25:32.829Z,55.10
2018-06-01T16:28:02.493Z,54.50
2018-06-01T16:30:31.385Z,54.60
2018-06-01T16:33:00.331Z,54.50
2018-06-01T16:35:29.213Z,55.00
2018-06-01T16:37:58.115Z,54.40
2018-06-01T16:40:27.938Z,54.40
2018-06-01T16:42:57.710Z,54.90
2018-06-01T16:45:26.614Z,54.40
2018-06-01T16:47:55.519Z,54.90
2018-06-01T16:50:24.605Z,54.40
2018-06-01T16:52:53.522Z,54.30
2018-06-01T16:55:23.173Z,54.90
2018-06-01T16:57:52.121Z,54.30
2018-06-01T17:00:21.772Z,54.80
2018-06-01T17:02:51.011Z,54.10
2018-06-01T17:05:20.933Z,55.00
2018-06-01T17:07:50.599Z,54.70
2018-06-01T17:10:19.498Z,54.20
2018-06-01T17:12:48.388Z,54.30
2018-06-01T17:15:17.282Z,54.80
2018-06-01T17:17:47.221Z,54.20
2018-06-01T17:20:16.796Z,54.10
2018-06-01T17:22:46.204Z,54.60
2018-06-01T17:25:15.094Z,54.30
2018-06-01T17:27:44.382Z,54.30
2018-06-01T17:30:13.381Z,54.30
2018-06-01T17:32:42.403Z,54.00
2018-06-01T17:35:11.304Z,54.50
2018-06-01T17:37:40.205Z,54.20
2018-06-01T17:40:09.151Z,52.70
2018-06-01T17:42:38.034Z,53.30
2018-06-01T17:45:06.954Z,52.40
2018-06-01T17:47:37.173Z,53.10
2018-06-01T17:50:07.090Z,53.50
2018-06-01T17:52:36.751Z,53.80
2018-06-01T17:55:05.641Z,53.40
2018-06-01T17:57:34.924Z,53.60
2018-06-01T18:00:03.896Z,53.60
2018-06-01T18:02:32.995Z,53.80
2018-06-01T18:05:01.894Z,53.90
2018-06-01T18:07:32.054Z,54.00
2018-06-01T18:10:00.950Z,53.80
2018-06-01T18:12:29.853Z,54.00
2018-06-01T18:14:59.510Z,54.70
2018-06-01T18:17:28.434Z,54.40
2018-06-01T18:19:58.102Z,55.30
2018-06-01T18:22:27.250Z,54.90
2018-06-01T18:24:56.093Z,54.50
2018-06-01T18:27:25.142Z,54.50
2018-06-01T18:29:55.043Z,55.00
2018-06-01T18:32:24.697Z,54.60
2018-06-01T18:34:53.587Z,54.60
2018-06-01T18:37:22.877Z,54.60
2018-06-01T18:39:51.772Z,54.60
2018-06-01T18:42:21.502Z,55.30
2018-06-01T18:44:50.803Z,54.60
2018-06-01T18:47:19.693Z,54.50
2018-06-01T18:49:48.580Z,54.60
2018-06-01T18:52:17.480Z,54.70
2018-06-01T18:54:47.216Z,54.40
2018-06-01T18:57:16.875Z,55.20
2018-06-01T18:59:45.769Z,55.20
2018-06-01T19:02:14.913Z,54.80
2018-06-01T19:07:14.816Z,55.40
2018-06-01T19:09:43.728Z,55.30
2018-06-01T19:12:13.373Z,55.00
2018-06-01T19:14:42.309Z,54.70
2018-06-01T19:17:11.157Z,54.70
2018-06-01T19:19:40.302Z,54.70
2018-06-01T19:22:09.409Z,54.80
2018-06-01T19:24:39.300Z,55.40
2018-06-01T19:27:08.200Z,55.30
2018-06-01T19:29:37.406Z,55.00
2018-06-01T19:32:07.429Z,55.10
2018-06-01T19:34:36.919Z,55.00
2018-06-01T19:37:05.946Z,55.00
2018-06-01T19:39:34.838Z,54.90
2018-06-01T19:42:03.776Z,55.00
2018-06-01T19:44:32.793Z,54.90
2018-06-01T19:47:02.449Z,55.30
2018-06-01T19:49:31.387Z,55.20
2018-06-01T19:52:01.048Z,54.80
2018-06-01T19:54:29.945Z,54.80
2018-06-01T19:56:58.830Z,54.80
2018-06-01T19:59:28.015Z,54.90
2018-06-01T20:01:57.650Z,55.40
2018-06-01T20:04:26.540Z,54.70
2018-06-01T20:06:55.430Z,55.00
2018-06-01T20:09:24.328Z,54.90
2018-06-01T20:11:53.223Z,54.90
2018-06-01T20:14:22.729Z,55.00
2018-06-01T20:16:51.747Z,55.00
2018-06-01T20:19:21.442Z,55.60
2018-06-01T20:21:50.839Z,55.00
2018-06-01T20:24:20.753Z,55.60
2018-06-01T20:26:50.418Z,55.60
2018-06-01T20:29:20.173Z,55.00
2018-06-01T20:31:49.850Z,55.70
2018-06-01T20:34:18.799Z,55.00
2018-06-01T20:36:47.692Z,55.00
2018-06-01T20:39:16.991Z,55.00
2018-06-01T20:41:46.024Z,55.10
2018-06-01T20:44:15.145Z,55.00
2018-06-01T20:46:44.813Z,55.60
2018-06-01T20:49:14.563Z,55.00
2018-06-01T20:51:44.224Z,55.70
2018-06-01T20:54:13.119Z,55.00
2018-06-01T20:56:42.067Z,55.10
2018-06-01T20:59:10.911Z,55.10
2018-06-01T21:01:40.034Z,54.90
2018-06-01T21:04:09.697Z,55.70
2018-06-01T21:06:38.606Z,55.10
2018-06-01T21:09:07.497Z,55.10
2018-06-01T21:11:36.462Z,55.60
2018-06-01T21:14:05.520Z,55.20
2018-06-01T21:16:34.689Z,55.20
2018-06-01T21:19:03.977Z,55.20
2018-06-01T21:21:32.874Z,55.20
2018-06-01T21:24:01.766Z,55.20
2018-06-01T21:26:30.661Z,55.20
2018-06-01T21:29:00.313Z,55.70
2018-06-01T21:31:29.262Z,55.20
2018-06-01T21:33:58.910Z,55.80
2018-06-01T21:36:27.810Z,55.30
2018-06-01T21:38:56.759Z,55.20
2018-06-01T21:41:26.377Z,55.30
2018-06-01T21:43:56.025Z,55.80
2018-06-01T21:46:25.698Z,55.30
2018-06-01T21:48:54.878Z,55.40
2018-06-01T21:51:23.989Z,55.90
2018-06-01T21:53:52.877Z,55.40
2018-06-01T21:56:21.769Z,55.40
2018-06-01T21:58:50.657Z,55.40
2018-06-01T22:01:19.549Z,55.40
2018-06-01T22:03:48.442Z,55.40
2018-06-01T22:06:17.325Z,55.40
2018-06-01T22:08:46.818Z,55.40
2018-06-01T22:11:16.721Z,56.00
2018-06-01T22:13:46.379Z,56.00
2018-06-01T22:16:15.320Z,55.50
2018-06-01T22:18:44.169Z,56.00
2018-06-01T22:21:13.053Z,55.40
2018-06-01T22:23:41.941Z,55.40
2018-06-01T22:26:10.832Z,55.50
2018-06-01T22:28:39.725Z,56.00
2018-06-01T22:31:08.615Z,55.40
2018-06-01T22:33:38.270Z,55.40
2018-06-01T22:36:07.201Z,55.40
2018-06-01T22:38:36.351Z,55.40
2018-06-01T22:41:06.014Z,56.10
2018-06-01T22:43:34.905Z,55.40
2018-06-01T22:46:04.572Z,55.40
2018-06-01T22:48:33.978Z,55.50
2018-06-01T22:51:02.880Z,55.40
2018-06-01T22:53:32.145Z,55.50
2018-06-01T22:56:01.803Z,56.10
2018-06-01T22:58:30.694Z,55.50
2018-06-01T23:00:59.585Z,55.60
2018-06-01T23:03:28.478Z,55.40
2018-06-01T23:05:57.621Z,55.50
2018-06-01T23:08:27.279Z,56.10
2018-06-01T23:10:56.221Z,55.60
2018-06-01T23:13:25.877Z,56.10
2018-06-01T23:15:55.224Z,56.00
2018-06-01T23:18:24.886Z,56.20
2018-06-01T23:20:53.924Z,55.60
2018-06-01T23:23:23.333Z,55.60
2018-06-01T23:25:52.999Z,56.10
2018-06-01T23:28:22.339Z,55.60
2018-06-01T23:30:51.457Z,56.10
2018-06-01T23:33:20.534Z,55.60
2018-06-01T23:35:50.436Z,55.50
2018-06-01T23:38:20.866Z,55.60
2018-06-01T23:40:50.163Z,55.60
2018-06-01T23:43:20.176Z,56.20
2018-06-01T23:45:50.093Z,56.20
2018-06-01T23:48:20.005Z,56.20
2018-06-01T23:50:50.028Z,55.60
2018-06-01T23:53:19.102Z,55.70
2018-06-01T23:55:48.776Z,56.40
2018-06-01T23:58:17.674Z,55.60
